createdAt,value
2018-12-02T00:02:22.240Z,15.23
2018-12-02T00:04:53.148Z,13.23
2018-12-02T00:07:23.046Z,13.20
2018-12-02T00:09:53.044Z,16.63
2018-12-02T00:12:22.588Z,24.87
2018-12-02T00:14:52.314Z,26.10
2018-12-02T00:17:22.394Z,28.93
2018-12-02T00:19:53.180Z,32.83
2018-12-02T00:22:22.637Z,35.37
2018-12-02T00:24:54.337Z,35.80
2018-12-02T00:27:26.302Z,43.50
2018-12-02T00:29:58.270Z,35.20
2018-12-02T00:32:29.212Z,33.17
2018-12-02T00:35:01.287Z,28.13
2018-12-02T00:37:32.318Z,29.70
2018-12-02T00:40:08.052Z,39.27
2018-12-02T00:42:37.521Z,34.00
2018-12-02T00:45:10.352Z,32.57
2018-12-02T00:47:41.217Z,26.57
2018-12-02T00:50:14.969Z,28.40
2018-12-02T00:52:50.629Z,29.80
2018-12-02T00:55:32.813Z,23.13
2018-12-02T00:58:03.582Z,22.23
2018-12-02T01:00:34.741Z,25.43
2018-12-02T01:03:08.665Z,26.53
2018-12-02T01:05:40.506Z,25.80
2018-12-02T01:08:11.814Z,26.60
2018-12-02T01:10:42.857Z,29.67
2018-12-02T01:13:13.684Z,25.17
2018-12-02T01:15:43.340Z,27.50
2018-12-02T01:18:13.792Z,23.40
2018-12-02T01:20:46.556Z,29.37
2018-12-02T01:23:18.176Z,20.43
2018-12-02T01:28:54.455Z,20.10
2018-12-02T01:31:28.152Z,20.80
2018-12-02T01:34:06.600Z,16.67
2018-12-02T01:36:36.088Z,16.13
2018-12-02T01:39:08.360Z,15.90
2018-12-02T01:41:43.414Z,15.87
2018-12-02T01:44:16.431Z,16.67
2018-12-02T01:46:53.481Z,18.30
2018-12-02T01:49:22.909Z,19.27
2018-12-02T01:51:54.450Z,17.17
2018-12-02T01:54:25.006Z,17.97
2018-12-02T01:56:54.602Z,17.80
2018-12-02T01:59:26.117Z,18.57
2018-12-02T02:01:56.734Z,16.63
2018-12-02T02:04:27.578Z,15.40
2018-12-02T02:06:57.729Z,14.70
2018-12-02T02:09:28.594Z,16.60
2018-12-02T02:11:59.630Z,17.30
2018-12-02T02:14:30.342Z,14.70
2018-12-02T02:16:59.764Z,14.73
2018-12-02T02:19:31.595Z,16.53
2018-12-02T02:22:02.577Z,16.27
2018-12-02T02:24:33.589Z,16.30
2018-12-02T02:27:03.911Z,16.57
2018-12-02T02:29:34.665Z,16.70
2018-12-02T02:32:06.415Z,17.30
2018-12-02T02:34:36.479Z,16.80
2018-12-02T02:37:12.686Z,18.20
2018-12-02T02:39:43.600Z,15.93
2018-12-02T02:42:13.657Z,16.70
2018-12-02T02:44:43.832Z,15.87
2018-12-02T02:47:14.828Z,15.13
2018-12-02T02:49:46.449Z,15.27
2018-12-02T02:52:15.837Z,15.20
2018-12-02T02:54:46.874Z,14.90
2018-12-02T02:57:16.809Z,14.33
2018-12-02T02:59:47.939Z,16.40
2018-12-02T03:02:18.757Z,14.60
2018-12-02T03:04:51.900Z,17.63
2018-12-02T03:07:22.773Z,15.87
2018-12-02T03:09:55.781Z,18.90
2018-12-02T03:12:26.421Z,15.30
2018-12-02T03:14:57.042Z,16.37
2018-12-02T03:17:28.225Z,15.57
2018-12-02T03:19:59.069Z,15.40
2018-12-02T03:22:28.985Z,17.77
2018-12-02T03:24:59.832Z,17.03
2018-12-02T03:27:31.924Z,16.50
2018-12-02T03:30:16.446Z,17.90
2018-12-02T03:32:47.179Z,16.77
2018-12-02T03:35:24.227Z,18.20
2018-12-02T03:37:56.220Z,17.33
2018-12-02T03:40:27.985Z,16.47
2018-12-02T03:42:59.138Z,15.73
2018-12-02T03:45:30.082Z,16.70
2018-12-02T03:48:03.260Z,15.17
2018-12-02T03:50:35.389Z,16.40
2018-12-02T03:53:08.226Z,15.93
2018-12-02T03:55:38.288Z,14.40
2018-12-02T03:58:08.837Z,15.80
2018-12-02T04:00:41.145Z,16.10
2018-12-02T04:03:12.868Z,17.77
2018-12-02T04:05:43.032Z,12.63
2018-12-02T04:08:14.131Z,14.23
2018-12-02T04:10:44.423Z,15.10
2018-12-02T04:13:15.092Z,13.50
2018-12-02T04:15:50.965Z,15.17
2018-12-02T04:18:25.973Z,12.83
2018-12-02T04:21:01.897Z,14.30
2018-12-02T04:23:32.166Z,14.90
2018-12-02T04:26:03.325Z,14.00
2018-12-02T04:28:33.820Z,13.00
2018-12-02T04:31:04.277Z,14.27
2018-12-02T04:33:35.293Z,13.03
2018-12-02T04:36:05.405Z,13.63
2018-12-02T04:38:35.836Z,14.63
2018-12-02T04:41:07.061Z,13.30
2018-12-02T04:43:44.270Z,16.57
2018-12-02T04:46:15.509Z,17.50
2018-12-02T04:48:45.485Z,16.47
2018-12-02T04:51:17.285Z,9.60
2018-12-02T04:53:49.314Z,10.23
2018-12-02T04:56:21.480Z,12.10
2018-12-02T04:58:51.564Z,13.50
2018-12-02T05:01:21.506Z,12.73
2018-12-02T05:03:52.651Z,10.00
2018-12-02T05:06:22.473Z,10.60
2018-12-02T05:08:54.365Z,10.93
2018-12-02T05:11:26.503Z,9.80
2018-12-02T05:13:58.846Z,8.60
2018-12-02T05:16:29.698Z,14.93
2018-12-02T05:19:01.605Z,12.97
2018-12-02T05:21:32.370Z,14.23
2018-12-02T05:24:02.760Z,17.53
2018-12-02T05:26:33.129Z,18.90
2018-12-02T05:29:03.630Z,19.40
2018-12-02T05:31:33.680Z,20.03
2018-12-02T05:34:05.000Z,21.30
2018-12-02T05:36:38.471Z,21.03
2018-12-02T05:39:10.176Z,19.30
2018-12-02T05:41:44.877Z,17.70
2018-12-02T05:44:16.470Z,14.73
2018-12-02T05:46:50.474Z,13.13
2018-12-02T05:49:19.831Z,12.83
2018-12-02T05:51:51.579Z,11.90
2018-12-02T05:54:22.686Z,13.33
2018-12-02T05:56:54.622Z,12.90
2018-12-02T05:59:26.370Z,13.53
2018-12-02T06:01:56.942Z,12.57
2018-12-02T06:04:26.729Z,12.03
2018-12-02T06:06:57.636Z,13.13
2018-12-02T06:09:29.220Z,14.30
2018-12-02T06:11:59.724Z,16.90
2018-12-02T06:14:29.917Z,17.03
2018-12-02T06:17:01.119Z,19.00
2018-12-02T06:19:31.546Z,16.93
2018-12-02T06:22:01.897Z,20.87
2018-12-02T06:24:32.419Z,23.73
2018-12-02T06:27:11.821Z,22.40
2018-12-02T06:29:42.804Z,23.50
2018-12-02T06:32:14.008Z,19.23
2018-12-02T06:34:45.875Z,20.03
2018-12-02T06:37:16.809Z,20.47
2018-12-02T06:39:47.049Z,21.17
2018-12-02T06:42:17.941Z,24.47
2018-12-02T06:47:48.716Z,26.37
2018-12-02T06:50:25.774Z,25.67
2018-12-02T06:53:01.932Z,34.73
2018-12-02T06:55:41.829Z,32.47
2018-12-02T06:58:40.730Z,33.70
2018-12-02T07:01:33.587Z,29.90
2018-12-02T07:04:31.791Z,21.20
2018-12-02T07:07:05.397Z,23.67
2018-12-02T07:09:36.925Z,21.53
2018-12-02T07:12:09.075Z,18.30
2018-12-02T07:14:40.296Z,18.80
2018-12-02T07:17:11.105Z,16.40
2018-12-02T07:19:49.940Z,16.90
2018-12-02T07:22:31.433Z,16.90
2018-12-02T07:25:05.209Z,18.90
2018-12-02T07:27:37.030Z,16.87
2018-12-02T07:30:10.055Z,20.60
2018-12-02T07:32:42.046Z,21.70
2018-12-02T07:35:14.070Z,26.43
2018-12-02T07:37:49.911Z,22.20
2018-12-02T07:40:27.605Z,24.63
2018-12-02T07:42:59.149Z,26.90
2018-12-02T07:45:29.285Z,24.80
2018-12-02T07:48:00.416Z,24.20
2018-12-02T07:50:30.531Z,26.17
2018-12-02T07:53:01.270Z,26.77
2018-12-02T07:55:32.204Z,25.87
2018-12-02T07:58:02.345Z,28.67
2018-12-02T08:00:33.309Z,27.33
2018-12-02T08:03:03.244Z,26.33
2018-12-02T08:05:34.243Z,25.33
2018-12-02T08:08:05.624Z,26.70
2018-12-02T08:10:35.194Z,24.33
2018-12-02T08:13:06.796Z,18.77
2018-12-02T08:15:36.258Z,22.13
2018-12-02T08:18:07.193Z,22.80
2018-12-02T08:20:37.156Z,28.00
2018-12-02T08:23:07.461Z,26.50
2018-12-02T08:25:39.451Z,27.20
2018-12-02T08:28:09.284Z,30.07
2018-12-02T08:30:39.456Z,30.57
2018-12-02T08:33:10.399Z,30.03
2018-12-02T08:35:41.349Z,29.60
2018-12-02T08:38:13.168Z,28.97
2018-12-02T08:43:45.070Z,33.27
2018-12-02T08:46:16.353Z,32.20
2018-12-02T08:48:47.513Z,30.50
2018-12-02T08:51:18.795Z,32.13
2018-12-02T08:53:50.337Z,30.47
2018-12-02T08:56:26.358Z,30.60
2018-12-02T08:58:59.231Z,30.93
2018-12-02T09:01:30.501Z,29.20
2018-12-02T09:04:01.444Z,27.57
2018-12-02T09:06:31.472Z,29.00
2018-12-02T09:09:01.938Z,30.77
2018-12-02T09:11:33.553Z,30.30
2018-12-02T09:14:06.315Z,31.90
2018-12-02T09:16:36.423Z,30.87
2018-12-02T09:19:12.387Z,28.37
2018-12-02T09:21:42.437Z,31.20
2018-12-02T09:24:13.577Z,30.83
2018-12-02T09:26:44.095Z,32.10
2018-12-02T09:29:14.658Z,30.13
2018-12-02T09:31:44.854Z,30.37
2018-12-02T09:34:15.505Z,30.60
2018-12-02T09:36:45.660Z,33.17
2018-12-02T09:39:18.498Z,32.07
2018-12-02T09:41:47.820Z,30.27
2018-12-02T09:44:17.644Z,30.10
2018-12-02T09:46:48.588Z,31.67
2018-12-02T09:49:19.095Z,32.43
2018-12-02T09:51:49.597Z,32.33
2018-12-02T09:54:23.347Z,33.17
2018-12-02T09:56:50.766Z,36.20
2018-12-02T09:59:21.790Z,33.70
2018-12-02T10:01:53.073Z,34.77
2018-12-02T10:04:23.537Z,36.73
2018-12-02T10:06:59.661Z,32.23
2018-12-02T10:09:33.693Z,33.60
2018-12-02T10:12:06.232Z,32.33
2018-12-02T10:14:37.673Z,34.70
2018-12-02T10:17:11.373Z,33.73
2018-12-02T10:19:41.929Z,36.57
2018-12-02T10:22:11.852Z,33.93
2018-12-02T10:24:42.998Z,33.73
2018-12-02T10:27:13.169Z,31.47
2018-12-02T10:29:43.817Z,34.50
2018-12-02T10:32:13.953Z,37.83
2018-12-02T10:34:44.696Z,34.20
2018-12-02T10:37:17.860Z,35.60
2018-12-02T10:39:49.329Z,38.13
2018-12-02T10:42:20.222Z,34.77
2018-12-02T10:44:50.192Z,35.83
2018-12-02T10:47:19.979Z,36.20
2018-12-02T10:49:54.078Z,35.27
2018-12-02T10:52:23.549Z,36.57
2018-12-02T10:54:55.329Z,33.90
2018-12-02T10:57:27.105Z,36.33
2018-12-02T10:59:59.183Z,39.40
2018-12-02T11:02:28.989Z,39.83
2018-12-02T11:05:00.101Z,37.27
2018-12-02T11:07:30.025Z,38.20
2018-12-02T11:10:01.401Z,39.13
2018-12-02T11:12:35.908Z,34.80
2018-12-02T11:15:12.420Z,35.97
2018-12-02T11:17:42.696Z,38.70
2018-12-02T11:20:15.243Z,37.63
2018-12-02T11:22:46.374Z,36.27
2018-12-02T11:25:17.033Z,35.57
2018-12-02T11:27:48.666Z,37.63
2018-12-02T11:30:18.508Z,35.90
2018-12-02T11:32:49.376Z,40.80
2018-12-02T11:35:19.445Z,40.07
2018-12-02T11:37:50.113Z,40.23
2018-12-02T11:40:22.018Z,38.40
2018-12-02T11:42:52.923Z,35.93
2018-12-02T11:45:22.355Z,40.20
2018-12-02T11:47:53.413Z,38.57
2018-12-02T11:50:25.517Z,40.47
2018-12-02T11:52:56.751Z,38.50
2018-12-02T11:55:27.291Z,37.93
2018-12-02T11:58:00.058Z,37.67
2018-12-02T12:00:35.656Z,36.90
2018-12-02T12:03:08.404Z,45.00
2018-12-02T12:05:39.007Z,40.80
2018-12-02T12:08:17.510Z,37.57
2018-12-02T12:10:51.067Z,37.00
2018-12-02T12:13:21.307Z,37.77
2018-12-02T12:15:52.353Z,39.27
2018-12-02T12:18:22.401Z,37.20
2018-12-02T12:20:53.444Z,37.07
2018-12-02T12:23:23.385Z,39.17
2018-12-02T12:25:54.437Z,39.03
2018-12-02T12:28:23.968Z,37.33
2018-12-02T12:30:53.399Z,40.00
2018-12-02T12:33:23.551Z,39.00
2018-12-02T12:35:53.642Z,37.70
2018-12-02T12:38:23.985Z,37.53
2018-12-02T12:40:54.542Z,39.07
2018-12-02T12:43:31.431Z,42.07
2018-12-02T12:46:03.189Z,40.30
2018-12-02T12:48:32.652Z,40.10
2018-12-02T12:51:04.648Z,37.60
2018-12-02T12:53:36.736Z,38.93
2018-12-02T12:56:08.462Z,39.20
2018-12-02T12:58:41.349Z,39.50
2018-12-02T13:01:12.997Z,42.20
2018-12-02T13:03:42.669Z,36.77
2018-12-02T13:06:13.880Z,39.70
2018-12-02T13:08:44.871Z,40.37
2018-12-02T13:11:14.585Z,38.43
2018-12-02T13:13:45.590Z,39.50
2018-12-02T13:16:15.648Z,42.07
2018-12-02T13:18:45.624Z,40.03
2018-12-02T13:21:16.741Z,39.27
2018-12-02T13:23:46.573Z,42.53
2018-12-02T13:26:17.546Z,40.53
2018-12-02T13:28:47.661Z,40.60
2018-12-02T13:31:21.843Z,42.80
2018-12-02T13:33:53.165Z,40.03
2018-12-02T13:36:22.674Z,41.17
2018-12-02T13:38:53.815Z,42.47
2018-12-02T13:41:23.660Z,42.80
2018-12-02T13:43:54.758Z,41.10
2018-12-02T13:46:24.145Z,44.00
2018-12-02T13:48:53.982Z,40.70
2018-12-02T13:51:23.731Z,40.60
2018-12-02T13:53:59.406Z,41.50
2018-12-02T13:56:29.749Z,41.03
2018-12-02T13:59:00.937Z,38.13
2018-12-02T14:01:31.878Z,39.80
2018-12-02T14:04:02.581Z,39.50
2018-12-02T14:06:38.740Z,40.47
2018-12-02T14:09:10.706Z,41.73
2018-12-02T14:11:40.193Z,37.70
2018-12-02T14:14:12.599Z,41.70
2018-12-02T14:16:55.749Z,37.57
2018-12-02T14:19:27.216Z,38.30
2018-12-02T14:21:57.973Z,38.57
2018-12-02T14:24:30.092Z,39.03
2018-12-02T14:27:01.865Z,42.17
2018-12-02T14:29:38.384Z,42.30
2018-12-02T14:32:12.845Z,39.13
2018-12-02T14:34:43.871Z,41.83
2018-12-02T14:37:14.097Z,42.67
2018-12-02T14:39:44.237Z,40.90
2018-12-02T14:42:13.631Z,40.23
2018-12-02T14:44:43.069Z,40.43
2018-12-02T14:47:13.337Z,45.30
2018-12-02T14:49:43.758Z,41.17
2018-12-02T14:52:13.789Z,40.27
2018-12-02T14:54:43.742Z,44.07
2018-12-02T14:57:13.264Z,43.80
2018-12-02T14:59:43.714Z,45.43
2018-12-02T15:02:13.625Z,49.67
2018-12-02T15:04:52.644Z,46.47
2018-12-02T15:07:22.021Z,43.10
2018-12-02T15:09:51.425Z,43.10
2018-12-02T15:12:21.137Z,43.53
2018-12-02T15:14:50.913Z,42.47
2018-12-02T15:17:20.671Z,44.03
2018-12-02T15:19:50.240Z,45.63
2018-12-02T15:22:22.853Z,43.97
2018-12-02T15:24:52.566Z,45.90
2018-12-02T15:27:22.355Z,43.60
2018-12-02T15:29:51.761Z,44.23
2018-12-02T15:32:24.315Z,45.87
2018-12-02T15:34:54.497Z,45.27
2018-12-02T15:37:24.425Z,46.60
2018-12-02T15:39:57.633Z,44.50
2018-12-02T15:42:27.513Z,45.17
2018-12-02T15:44:57.167Z,44.87
2018-12-02T15:47:27.193Z,46.03
2018-12-02T15:49:57.233Z,45.87
2018-12-02T15:52:27.295Z,45.50
2018-12-02T15:54:56.708Z,48.80
2018-12-02T15:57:27.402Z,44.40
2018-12-02T16:00:20.173Z,48.00
2018-12-02T16:02:49.864Z,48.97
2018-12-02T16:05:19.898Z,46.33
2018-12-02T16:07:49.297Z,45.37
2018-12-02T16:10:18.873Z,45.10
2018-12-02T16:12:50.751Z,43.57
2018-12-02T16:15:21.858Z,42.30
2018-12-02T16:17:52.089Z,42.17
2018-12-02T16:20:25.897Z,45.47
2018-12-02T16:22:56.026Z,46.10
2018-12-02T16:25:26.175Z,47.03
2018-12-02T16:27:55.565Z,48.23
2018-12-02T16:30:25.161Z,46.73
2018-12-02T16:32:55.196Z,48.10
2018-12-02T16:35:26.290Z,47.87
2018-12-02T16:37:56.852Z,47.30
2018-12-02T16:40:31.039Z,46.87
2018-12-02T16:43:07.132Z,44.47
2018-12-02T16:45:36.794Z,50.77
2018-12-02T16:48:07.998Z,48.80
2018-12-02T16:50:44.542Z,50.50
2018-12-02T16:53:17.260Z,48.00
2018-12-02T16:55:52.385Z,48.60
2018-12-02T16:58:50.361Z,45.37
2018-12-02T17:01:22.844Z,50.93
2018-12-02T17:03:56.526Z,52.37
2018-12-02T17:06:26.010Z,49.70
2018-12-02T17:08:56.896Z,53.07
2018-12-02T17:11:26.990Z,52.60
2018-12-02T17:13:58.373Z,48.67
2018-12-02T17:16:29.125Z,49.90
2018-12-02T17:18:58.545Z,47.40
2018-12-02T17:21:28.204Z,50.27
2018-12-02T17:23:58.119Z,49.00
2018-12-02T17:26:27.545Z,48.47
2018-12-02T17:29:05.962Z,48.90
2018-12-02T17:31:38.732Z,47.73
2018-12-02T17:34:08.685Z,45.97
2018-12-02T17:36:38.116Z,47.00
2018-12-02T17:39:11.428Z,45.97
2018-12-02T17:41:41.814Z,44.27
2018-12-02T17:44:11.230Z,48.17
2018-12-02T17:46:40.800Z,52.97
2018-12-02T17:49:10.864Z,62.83
2018-12-02T17:51:41.028Z,67.07
2018-12-02T17:54:10.956Z,66.93
2018-12-02T17:56:41.092Z,75.27
2018-12-02T17:59:10.949Z,72.37
2018-12-02T18:01:40.468Z,66.80
2018-12-02T18:04:10.779Z,68.40
2018-12-02T18:06:40.528Z,61.90
2018-12-02T18:09:12.514Z,56.77
2018-12-02T18:11:43.490Z,51.30
2018-12-02T18:14:13.067Z,50.37
2018-12-02T18:16:42.677Z,51.73
2018-12-02T18:19:12.240Z,49.23
2018-12-02T18:21:43.290Z,47.43
2018-12-02T18:24:12.922Z,49.33
2018-12-02T18:26:48.993Z,48.57
2018-12-02T18:29:19.780Z,46.00
2018-12-02T18:31:50.119Z,45.93
2018-12-02T18:34:20.209Z,42.20
2018-12-02T18:36:49.942Z,44.57
2018-12-02T18:39:21.644Z,42.27
2018-12-02T18:41:53.858Z,43.63
2018-12-02T18:44:23.801Z,44.47
2018-12-02T18:46:54.046Z,43.73
2018-12-02T18:49:24.014Z,43.00
2018-12-02T18:51:53.522Z,47.90
2018-12-02T18:54:23.721Z,52.90
2018-12-02T18:56:53.523Z,57.90
2018-12-02T18:59:23.330Z,57.97
2018-12-02T19:01:54.218Z,61.20
2018-12-02T19:04:25.653Z,59.67
2018-12-02T19:06:58.695Z,59.70
2018-12-02T19:09:26.532Z,60.20
2018-12-02T19:14:56.614Z,58.23
2018-12-02T19:17:27.169Z,56.07
2018-12-02T19:19:57.659Z,54.37
2018-12-02T19:22:27.813Z,54.47
2018-12-02T19:24:57.421Z,55.20
2018-12-02T19:27:27.894Z,48.63
2018-12-02T19:29:59.542Z,49.50
2018-12-02T19:32:29.836Z,51.10
2018-12-02T19:35:00.301Z,51.93
2018-12-02T19:37:39.460Z,49.57
2018-12-02T19:40:12.525Z,38.40
2018-12-02T19:42:43.361Z,36.70
2018-12-02T19:45:17.795Z,37.00
2018-12-02T19:47:48.323Z,38.10
2018-12-02T19:50:19.489Z,38.37
2018-12-02T19:52:50.305Z,36.70
2018-12-02T19:55:20.853Z,32.57
2018-12-02T19:57:51.006Z,44.37
2018-12-02T20:00:25.581Z,41.00
2018-12-02T20:02:55.915Z,48.37
2018-12-02T20:05:26.054Z,50.70
2018-12-02T20:08:00.230Z,54.83
2018-12-02T20:10:31.663Z,52.00
2018-12-02T20:13:04.183Z,56.20
2018-12-02T20:15:34.035Z,52.57
2018-12-02T20:18:05.178Z,55.70
2018-12-02T20:20:57.542Z,50.47
2018-12-02T20:23:32.090Z,47.80
2018-12-02T20:26:04.306Z,47.37
2018-12-02T20:28:45.718Z,45.93
2018-12-02T20:31:16.981Z,47.10
2018-12-02T20:33:46.798Z,56.77
2018-12-02T20:36:17.534Z,51.83
2018-12-02T20:38:47.697Z,48.43
2018-12-02T20:41:17.227Z,47.10
2018-12-02T20:43:48.619Z,50.43
2018-12-02T20:46:18.229Z,49.53
2018-12-02T20:48:48.774Z,44.37
2018-12-02T20:51:18.347Z,43.67
2018-12-02T20:53:51.217Z,46.07
2018-12-02T20:56:20.777Z,42.33
2018-12-02T20:58:50.931Z,43.20
2018-12-02T21:01:23.728Z,40.70
2018-12-02T21:03:54.410Z,34.47
2018-12-02T21:06:24.426Z,40.17
2018-12-02T21:08:54.409Z,38.10
2018-12-02T21:11:23.899Z,43.07
2018-12-02T21:13:53.341Z,50.60
2018-12-02T21:16:24.049Z,52.97
2018-12-02T21:18:53.439Z,55.27
2018-12-02T21:21:24.160Z,60.47
2018-12-02T21:23:53.550Z,52.17
2018-12-02T21:26:22.953Z,64.47
2018-12-02T21:28:52.945Z,54.20
2018-12-02T21:31:22.593Z,54.00
2018-12-02T21:33:52.003Z,46.70
2018-12-02T21:36:22.348Z,46.80
2018-12-02T21:38:52.170Z,46.10
2018-12-02T21:41:21.534Z,48.10
2018-12-02T21:43:52.033Z,43.90
2018-12-02T21:46:21.580Z,47.87
2018-12-02T21:48:52.444Z,42.63
2018-12-02T21:51:26.505Z,43.50
2018-12-02T21:53:55.970Z,42.70
2018-12-02T21:56:26.058Z,41.43
2018-12-02T21:58:55.701Z,44.30
2018-12-02T22:01:25.125Z,43.30
2018-12-02T22:03:54.547Z,42.20
2018-12-02T22:06:24.575Z,42.47
2018-12-02T22:08:54.011Z,40.20
2018-12-02T22:11:24.213Z,40.40
2018-12-02T22:13:54.777Z,38.77
2018-12-02T22:16:24.537Z,38.47
2018-12-02T22:18:54.413Z,38.37
2018-12-02T22:21:23.930Z,37.20
2018-12-02T22:23:53.397Z,38.57
2018-12-02T22:26:24.241Z,36.37
2018-12-02T22:28:55.266Z,38.17
2018-12-02T22:31:24.764Z,37.57
2018-12-02T22:33:54.959Z,39.53
2018-12-02T22:36:24.541Z,39.73
2018-12-02T22:38:54.677Z,40.20
2018-12-02T22:41:24.584Z,38.37
2018-12-02T22:43:54.645Z,40.10
2018-12-02T22:46:25.078Z,40.97
2018-12-02T22:48:55.205Z,40.40
2018-12-02T22:51:24.685Z,39.17
2018-12-02T22:53:56.099Z,40.23
2018-12-02T22:56:25.605Z,37.00
2018-12-02T22:58:55.277Z,38.33
2018-12-02T23:01:30.220Z,36.70
2018-12-02T23:04:01.935Z,38.20
2018-12-02T23:06:36.253Z,35.20
2018-12-02T23:09:08.594Z,32.50
2018-12-02T23:11:41.841Z,30.53
2018-12-02T23:14:11.280Z,33.43
2018-12-02T23:16:45.865Z,31.07
2018-12-02T23:19:15.424Z,31.20
2018-12-02T23:21:44.793Z,29.97
2018-12-02T23:24:14.454Z,31.87
2018-12-02T23:26:43.867Z,28.27
2018-12-02T23:29:13.422Z,28.73
2018-12-02T23:31:44.031Z,26.33
2018-12-02T23:34:13.474Z,26.83
2018-12-02T23:36:43.577Z,28.27
2018-12-02T23:39:16.050Z,29.17
2018-12-02T23:41:45.679Z,31.07
2018-12-02T23:44:18.365Z,28.97
2018-12-02T23:46:47.801Z,30.40
2018-12-02T23:49:17.756Z,29.17
2018-12-02T23:51:47.811Z,25.50
2018-12-02T23:54:18.570Z,26.50
2018-12-02T23:56:49.285Z,12.53
2018-12-02T23:59:21.293Z,14.60
